sensor_id;sensor_type;location;lat;lon;timestamp;temperature;humidity
42097;DHT22;27754;45.414;11.084;2022-11-15T00:01:44;7.90;92.60
42097;DHT22;27754;45.414;11.084;2022-11-15T00:04:30;7.90;92.70
42097;DHT22;27754;45.414;11.084;2022-11-15T00:07:15;7.90;92.50
42097;DHT22;27754;45.414;11.084;2022-11-15T00:10:21;7.80;92.10
42097;DHT22;27754;45.414;11.084;2022-11-15T00:13:08;7.70;91.80
42097;DHT22;27754;45.414;11.084;2022-11-15T00:15:57;7.50;91.40
42097;DHT22;27754;45.414;11.084;2022-11-15T00:18:43;7.50;92.20
42097;DHT22;27754;45.414;11.084;2022-11-15T00:21:34;7.60;92.50
42097;DHT22;27754;45.414;11.084;2022-11-15T00:24:20;7.60;92.70
42097;DHT22;27754;45.414;11.084;2022-11-15T00:27:06;7.60;92.80
42097;DHT22;27754;45.414;11.084;2022-11-15T00:29:52;7.60;92.70
42097;DHT22;27754;45.414;11.084;2022-11-15T00:32:38;7.50;92.70
42097;DHT22;27754;45.414;11.084;2022-11-15T00:35:24;7.50;92.80
42097;DHT22;27754;45.414;11.084;2022-11-15T00:38:09;7.50;92.80
42097;DHT22;27754;45.414;11.084;2022-11-15T00:40:55;7.50;93.10
42097;DHT22;27754;45.414;11.084;2022-11-15T00:43:40;7.60;93.30
42097;DHT22;27754;45.414;11.084;2022-11-15T00:46:29;7.60;93.50
42097;DHT22;27754;45.414;11.084;2022-11-15T00:49:15;7.70;93.70
42097;DHT22;27754;45.414;11.084;2022-11-15T00:52:00;7.70;93.70
42097;DHT22;27754;45.414;11.084;2022-11-15T00:54:45;7.70;93.50
42097;DHT22;27754;45.414;11.084;2022-11-15T00:57:33;7.60;93.70
42097;DHT22;27754;45.414;11.084;2022-11-15T01:00:19;7.70;93.90
42097;DHT22;27754;45.414;11.084;2022-11-15T01:03:04;7.70;93.70
42097;DHT22;27754;45.414;11.084;2022-11-15T01:05:50;7.70;93.70
42097;DHT22;27754;45.414;11.084;2022-11-15T01:08:36;7.70;93.50
42097;DHT22;27754;45.414;11.084;2022-11-15T01:11:21;7.60;93.20
42097;DHT22;27754;45.414;11.084;2022-11-15T01:14:06;7.50;93.10
42097;DHT22;27754;45.414;11.084;2022-11-15T01:16:52;7.60;93.30
42097;DHT22;27754;45.414;11.084;2022-11-15T01:19:37;7.60;93.30
42097;DHT22;27754;45.414;11.084;2022-11-15T01:22:23;7.40;92.20
42097;DHT22;27754;45.414;11.084;2022-11-15T01:25:08;7.40;92.20
42097;DHT22;27754;45.414;11.084;2022-11-15T01:27:54;7.20;91.80
42097;DHT22;27754;45.414;11.084;2022-11-15T01:30:39;7.10;91.80
42097;DHT22;27754;45.414;11.084;2022-11-15T01:33:25;7.00;91.70
42097;DHT22;27754;45.414;11.084;2022-11-15T01:36:17;6.80;91.90
42097;DHT22;27754;45.414;11.084;2022-11-15T01:39:03;6.80;92.10
42097;DHT22;27754;45.414;11.084;2022-11-15T01:41:48;6.90;92.60
42097;DHT22;27754;45.414;11.084;2022-11-15T01:50:14;7.10;94.10
42097;DHT22;27754;45.414;11.084;2022-11-15T01:53:00;7.00;94.30
42097;DHT22;27754;45.414;11.084;2022-11-15T01:55:46;7.20;94.50
42097;DHT22;27754;45.414;11.084;2022-11-15T01:58:31;7.10;94.30
42097;DHT22;27754;45.414;11.084;2022-11-15T02:01:17;7.20;94.30
42097;DHT22;27754;45.414;11.084;2022-11-15T02:04:26;7.20;94.10
42097;DHT22;27754;45.414;11.084;2022-11-15T02:07:16;7.10;94.00
42097;DHT22;27754;45.414;11.084;2022-11-15T02:10:16;7.20;93.90
42097;DHT22;27754;45.414;11.084;2022-11-15T02:13:02;7.20;93.60
42097;DHT22;27754;45.414;11.084;2022-11-15T02:26:08;7.10;93.20
42097;DHT22;27754;45.414;11.084;2022-11-15T02:29:11;7.10;93.10
42097;DHT22;27754;45.414;11.084;2022-11-15T02:32:10;7.00;93.00
42097;DHT22;27754;45.414;11.084;2022-11-15T02:37:57;6.90;92.90
42097;DHT22;27754;45.414;11.084;2022-11-15T02:41:13;6.90;92.70
42097;DHT22;27754;45.414;11.084;2022-11-15T02:44:06;6.80;92.40
42097;DHT22;27754;45.414;11.084;2022-11-15T02:47:01;6.70;92.50
42097;DHT22;27754;45.414;11.084;2022-11-15T02:50:05;6.80;93.20
42097;DHT22;27754;45.414;11.084;2022-11-15T02:52:52;6.80;93.50
42097;DHT22;27754;45.414;11.084;2022-11-15T02:55:41;6.80;93.30
42097;DHT22;27754;45.414;11.084;2022-11-15T03:04:43;6.80;93.20
42097;DHT22;27754;45.414;11.084;2022-11-15T03:07:35;6.90;93.20
42097;DHT22;27754;45.414;11.084;2022-11-15T03:11:02;6.90;93.20
42097;DHT22;27754;45.414;11.084;2022-11-15T03:13:56;6.90;93.20
42097;DHT22;27754;45.414;11.084;2022-11-15T03:17:00;6.90;93.30
42097;DHT22;27754;45.414;11.084;2022-11-15T03:20:23;6.80;93.10
42097;DHT22;27754;45.414;11.084;2022-11-15T03:23:06;6.80;93.30
42097;DHT22;27754;45.414;11.084;2022-11-15T03:25:54;6.70;93.20
42097;DHT22;27754;45.414;11.084;2022-11-15T03:28:46;6.70;93.40
42097;DHT22;27754;45.414;11.084;2022-11-15T03:31:39;6.70;93.70
42097;DHT22;27754;45.414;11.084;2022-11-15T03:37:46;6.80;94.20
42097;DHT22;27754;45.414;11.084;2022-11-15T03:40:46;6.70;94.10
42097;DHT22;27754;45.414;11.084;2022-11-15T03:43:47;6.70;94.20
42097;DHT22;27754;45.414;11.084;2022-11-15T03:46:43;6.60;94.20
42097;DHT22;27754;45.414;11.084;2022-11-15T03:49:33;6.60;94.30
42097;DHT22;27754;45.414;11.084;2022-11-15T03:52:20;6.60;94.30
42097;DHT22;27754;45.414;11.084;2022-11-15T03:55:10;6.60;94.10
42097;DHT22;27754;45.414;11.084;2022-11-15T03:57:59;6.60;94.00
42097;DHT22;27754;45.414;11.084;2022-11-15T04:00:44;6.60;93.90
42097;DHT22;27754;45.414;11.084;2022-11-15T04:03:30;6.50;93.60
42097;DHT22;27754;45.414;11.084;2022-11-15T04:06:16;6.50;93.80
42097;DHT22;27754;45.414;11.084;2022-11-15T04:09:02;6.50;93.80
42097;DHT22;27754;45.414;11.084;2022-11-15T04:11:48;6.50;93.70
42097;DHT22;27754;45.414;11.084;2022-11-15T04:14:33;6.40;93.60
42097;DHT22;27754;45.414;11.084;2022-11-15T04:17:18;6.40;93.70
42097;DHT22;27754;45.414;11.084;2022-11-15T04:20:05;6.40;93.90
42097;DHT22;27754;45.414;11.084;2022-11-15T04:23:11;6.50;93.90
42097;DHT22;27754;45.414;11.084;2022-11-15T04:26:17;6.40;93.70
42097;DHT22;27754;45.414;11.084;2022-11-15T04:29:03;6.50;93.60
42097;DHT22;27754;45.414;11.084;2022-11-15T04:32:07;6.50;93.50
42097;DHT22;27754;45.414;11.084;2022-11-15T04:34:53;6.40;93.10
42097;DHT22;27754;45.414;11.084;2022-11-15T04:37:38;6.40;92.70
42097;DHT22;27754;45.414;11.084;2022-11-15T04:40:30;6.30;92.60
42097;DHT22;27754;45.414;11.084;2022-11-15T04:43:16;6.10;92.70
42097;DHT22;27754;45.414;11.084;2022-11-15T04:46:01;6.10;93.10
42097;DHT22;27754;45.414;11.084;2022-11-15T04:48:47;6.10;93.50
42097;DHT22;27754;45.414;11.084;2022-11-15T04:51:32;6.10;93.90
42097;DHT22;27754;45.414;11.084;2022-11-15T04:54:18;6.20;94.20
42097;DHT22;27754;45.414;11.084;2022-11-15T04:57:03;6.10;94.30
42097;DHT22;27754;45.414;11.084;2022-11-15T04:59:49;6.20;94.40
42097;DHT22;27754;45.414;11.084;2022-11-15T05:02:34;6.20;94.50
42097;DHT22;27754;45.414;11.084;2022-11-15T05:05:39;6.30;94.50
42097;DHT22;27754;45.414;11.084;2022-11-15T05:08:25;6.20;94.20
42097;DHT22;27754;45.414;11.084;2022-11-15T05:11:10;6.10;94.20
42097;DHT22;27754;45.414;11.084;2022-11-15T05:13:56;6.10;94.30
42097;DHT22;27754;45.414;11.084;2022-11-15T05:16:41;6.10;94.30
42097;DHT22;27754;45.414;11.084;2022-11-15T05:19:27;6.10;94.30
42097;DHT22;27754;45.414;11.084;2022-11-15T05:22:13;6.00;94.40
42097;DHT22;27754;45.414;11.084;2022-11-15T05:24:58;6.00;94.60
42097;DHT22;27754;45.414;11.084;2022-11-15T05:27:44;6.00;94.60
42097;DHT22;27754;45.414;11.084;2022-11-15T05:30:30;5.90;94.70
42097;DHT22;27754;45.414;11.084;2022-11-15T05:33:15;5.90;94.70
42097;DHT22;27754;45.414;11.084;2022-11-15T05:36:07;5.90;94.80
42097;DHT22;27754;45.414;11.084;2022-11-15T05:38:54;5.90;95.00
42097;DHT22;27754;45.414;11.084;2022-11-15T05:41:44;6.00;95.20
42097;DHT22;27754;45.414;11.084;2022-11-15T05:44:31;6.00;95.10
42097;DHT22;27754;45.414;11.084;2022-11-15T05:47:20;6.00;95.20
42097;DHT22;27754;45.414;11.084;2022-11-15T05:50:07;6.10;95.30
42097;DHT22;27754;45.414;11.084;2022-11-15T05:52:54;6.00;95.30
42097;DHT22;27754;45.414;11.084;2022-11-15T05:55:45;6.10;95.60
42097;DHT22;27754;45.414;11.084;2022-11-15T05:58:32;6.10;95.60
42097;DHT22;27754;45.414;11.084;2022-11-15T06:01:17;6.40;95.80
42097;DHT22;27754;45.414;11.084;2022-11-15T06:04:03;6.40;95.50
42097;DHT22;27754;45.414;11.084;2022-11-15T06:06:49;6.40;95.60
42097;DHT22;27754;45.414;11.084;2022-11-15T06:09:34;6.40;95.60
42097;DHT22;27754;45.414;11.084;2022-11-15T06:12:20;6.50;95.50
42097;DHT22;27754;45.414;11.084;2022-11-15T06:15:06;6.60;95.50
42097;DHT22;27754;45.414;11.084;2022-11-15T06:17:51;6.60;95.40
42097;DHT22;27754;45.414;11.084;2022-11-15T06:20:37;6.70;95.30
42097;DHT22;27754;45.414;11.084;2022-11-15T06:23:22;6.60;95.20
42097;DHT22;27754;45.414;11.084;2022-11-15T06:26:10;6.60;95.00
42097;DHT22;27754;45.414;11.084;2022-11-15T06:28:55;6.50;94.80
42097;DHT22;27754;45.414;11.084;2022-11-15T06:31:41;6.40;94.90
42097;DHT22;27754;45.414;11.084;2022-11-15T06:34:26;6.50;95.10
42097;DHT22;27754;45.414;11.084;2022-11-15T06:37:12;6.60;95.10
42097;DHT22;27754;45.414;11.084;2022-11-15T06:39:57;6.60;95.10
42097;DHT22;27754;45.414;11.084;2022-11-15T06:42:43;6.70;95.10
42097;DHT22;27754;45.414;11.084;2022-11-15T06:45:28;6.70;95.00
42097;DHT22;27754;45.414;11.084;2022-11-15T06:48:14;6.70;95.10
42097;DHT22;27754;45.414;11.084;2022-11-15T06:51:01;6.70;95.10
42097;DHT22;27754;45.414;11.084;2022-11-15T06:53:47;6.70;95.00
42097;DHT22;27754;45.414;11.084;2022-11-15T06:56:34;6.70;94.90
42097;DHT22;27754;45.414;11.084;2022-11-15T06:59:19;6.70;94.90
42097;DHT22;27754;45.414;11.084;2022-11-15T07:02:05;6.50;94.90
42097;DHT22;27754;45.414;11.084;2022-11-15T07:04:51;6.20;95.00
42097;DHT22;27754;45.414;11.084;2022-11-15T07:07:36;6.10;95.10
42097;DHT22;27754;45.414;11.084;2022-11-15T07:10:23;5.90;95.40
42097;DHT22;27754;45.414;11.084;2022-11-15T07:13:09;5.90;95.80
42097;DHT22;27754;45.414;11.084;2022-11-15T07:15:54;6.00;96.10
42097;DHT22;27754;45.414;11.084;2022-11-15T07:18:40;6.10;96.00
42097;DHT22;27754;45.414;11.084;2022-11-15T07:21:26;5.90;95.60
42097;DHT22;27754;45.414;11.084;2022-11-15T07:24:12;5.80;95.70
42097;DHT22;27754;45.414;11.084;2022-11-15T07:26:57;6.00;96.20
42097;DHT22;27754;45.414;11.084;2022-11-15T07:29:43;6.20;96.10
42097;DHT22;27754;45.414;11.084;2022-11-15T07:32:28;6.40;96.30
42097;DHT22;27754;45.414;11.084;2022-11-15T07:35:14;6.50;96.00
42097;DHT22;27754;45.414;11.084;2022-11-15T07:38:01;6.60;95.90
42097;DHT22;27754;45.414;11.084;2022-11-15T07:40:47;6.70;95.60
42097;DHT22;27754;45.414;11.084;2022-11-15T07:43:33;6.80;95.50
42097;DHT22;27754;45.414;11.084;2022-11-15T07:46:19;6.90;95.30
42097;DHT22;27754;45.414;11.084;2022-11-15T07:49:05;7.00;95.20
42097;DHT22;27754;45.414;11.084;2022-11-15T07:51:50;7.10;94.90
42097;DHT22;27754;45.414;11.084;2022-11-15T07:54:36;7.10;94.60
42097;DHT22;27754;45.414;11.084;2022-11-15T07:57:21;7.10;94.30
42097;DHT22;27754;45.414;11.084;2022-11-15T08:00:07;7.30;94.20
42097;DHT22;27754;45.414;11.084;2022-11-15T08:02:55;7.30;94.10
42097;DHT22;27754;45.414;11.084;2022-11-15T08:05:50;7.40;93.90
42097;DHT22;27754;45.414;11.084;2022-11-15T08:08:36;7.50;93.70
42097;DHT22;27754;45.414;11.084;2022-11-15T08:11:21;7.60;93.70
42097;DHT22;27754;45.414;11.084;2022-11-15T08:14:07;7.70;93.60
42097;DHT22;27754;45.414;11.084;2022-11-15T08:16:54;7.80;93.40
42097;DHT22;27754;45.414;11.084;2022-11-15T08:19:40;7.80;93.00
42097;DHT22;27754;45.414;11.084;2022-11-15T08:22:26;7.80;92.80
42097;DHT22;27754;45.414;11.084;2022-11-15T08:25:11;7.80;92.70
42097;DHT22;27754;45.414;11.084;2022-11-15T08:27:59;7.80;92.50
42097;DHT22;27754;45.414;11.084;2022-11-15T08:30:45;7.90;93.00
42097;DHT22;27754;45.414;11.084;2022-11-15T08:33:31;7.90;93.10
42097;DHT22;27754;45.414;11.084;2022-11-15T08:36:17;8.00;93.10
42097;DHT22;27754;45.414;11.084;2022-11-15T08:39:03;8.00;93.20
42097;DHT22;27754;45.414;11.084;2022-11-15T08:41:49;8.10;92.90
42097;DHT22;27754;45.414;11.084;2022-11-15T08:44:34;8.00;92.80
42097;DHT22;27754;45.414;11.084;2022-11-15T08:47:19;8.10;92.80
42097;DHT22;27754;45.414;11.084;2022-11-15T08:50:06;8.20;92.80
42097;DHT22;27754;45.414;11.084;2022-11-15T08:52:51;8.20;92.80
42097;DHT22;27754;45.414;11.084;2022-11-15T08:55:38;8.30;92.50
42097;DHT22;27754;45.414;11.084;2022-11-15T08:58:24;8.30;92.00
42097;DHT22;27754;45.414;11.084;2022-11-15T09:01:18;8.20;92.30
42097;DHT22;27754;45.414;11.084;2022-11-15T09:04:04;8.30;92.30
42097;DHT22;27754;45.414;11.084;2022-11-15T09:06:49;8.40;92.10
42097;DHT22;27754;45.414;11.084;2022-11-15T09:09:35;8.50;91.70
42097;DHT22;27754;45.414;11.084;2022-11-15T09:12:21;8.50;91.90
42097;DHT22;27754;45.414;11.084;2022-11-15T09:15:06;8.50;91.50
42097;DHT22;27754;45.414;11.084;2022-11-15T09:17:52;8.50;91.10
42097;DHT22;27754;45.414;11.084;2022-11-15T09:20:38;8.60;91.60
42097;DHT22;27754;45.414;11.084;2022-11-15T09:23:23;8.80;91.60
42097;DHT22;27754;45.414;11.084;2022-11-15T09:26:09;8.80;91.10
42097;DHT22;27754;45.414;11.084;2022-11-15T09:28:55;8.90;91.50
42097;DHT22;27754;45.414;11.084;2022-11-15T09:31:40;8.90;91.50
42097;DHT22;27754;45.414;11.084;2022-11-15T09:34:26;8.90;90.60
42097;DHT22;27754;45.414;11.084;2022-11-15T09:37:11;9.00;90.90
42097;DHT22;27754;45.414;11.084;2022-11-15T09:39:57;8.90;90.80
42097;DHT22;27754;45.414;11.084;2022-11-15T09:43:04;8.90;90.70
42097;DHT22;27754;45.414;11.084;2022-11-15T09:49:00;8.90;91.20
42097;DHT22;27754;45.414;11.084;2022-11-15T09:51:54;9.00;91.00
42097;DHT22;27754;45.414;11.084;2022-11-15T09:57:26;9.20;90.90
42097;DHT22;27754;45.414;11.084;2022-11-15T10:03:08;9.30;90.80
42097;DHT22;27754;45.414;11.084;2022-11-15T10:05:50;9.30;90.40
42097;DHT22;27754;45.414;11.084;2022-11-15T10:08:43;9.40;90.50
42097;DHT22;27754;45.414;11.084;2022-11-15T10:11:15;9.40;90.50
42097;DHT22;27754;45.414;11.084;2022-11-15T10:14:42;9.40;90.50
42097;DHT22;27754;45.414;11.084;2022-11-15T10:22:53;9.60;89.90
42097;DHT22;27754;45.414;11.084;2022-11-15T10:25:31;9.40;90.30
42097;DHT22;27754;45.414;11.084;2022-11-15T10:27:59;9.40;90.30
42097;DHT22;27754;45.414;11.084;2022-11-15T10:30:33;9.50;90.30
42097;DHT22;27754;45.414;11.084;2022-11-15T10:36:14;9.40;90.20
42097;DHT22;27754;45.414;11.084;2022-11-15T10:38:54;9.40;91.00
42097;DHT22;27754;45.414;11.084;2022-11-15T10:44:22;9.30;90.50
42097;DHT22;27754;45.414;11.084;2022-11-15T10:49:29;9.60;90.70
42097;DHT22;27754;45.414;11.084;2022-11-15T10:52:02;9.70;90.30
42097;DHT22;27754;45.414;11.084;2022-11-15T10:54:36;9.70;90.30
42097;DHT22;27754;45.414;11.084;2022-11-15T10:57:22;9.70;90.20
42097;DHT22;27754;45.414;11.084;2022-11-15T10:59:55;9.70;90.40
42097;DHT22;27754;45.414;11.084;2022-11-15T11:02:44;9.70;90.80
42097;DHT22;27754;45.414;11.084;2022-11-15T11:05:32;9.70;90.70
42097;DHT22;27754;45.414;11.084;2022-11-15T11:10:38;9.90;90.90
42097;DHT22;27754;45.414;11.084;2022-11-15T11:13:31;9.90;90.60
42097;DHT22;27754;45.414;11.084;2022-11-15T11:21:21;9.90;90.00
42097;DHT22;27754;45.414;11.084;2022-11-15T11:26:54;9.90;90.00
42097;DHT22;27754;45.414;11.084;2022-11-15T11:29:29;9.90;90.70
42097;DHT22;27754;45.414;11.084;2022-11-15T11:40:27;9.80;90.30
42097;DHT22;27754;45.414;11.084;2022-11-15T11:43:08;9.80;90.60
42097;DHT22;27754;45.414;11.084;2022-11-15T11:45:50;9.90;90.90
42097;DHT22;27754;45.414;11.084;2022-11-15T11:48:23;9.90;90.60
42097;DHT22;27754;45.414;11.084;2022-11-15T11:51:03;9.90;90.30
42097;DHT22;27754;45.414;11.084;2022-11-15T11:53:40;9.90;90.60
42097;DHT22;27754;45.414;11.084;2022-11-15T11:56:22;9.90;91.00
42097;DHT22;27754;45.414;11.084;2022-11-15T11:58:50;10.00;91.20
42097;DHT22;27754;45.414;11.084;2022-11-15T12:01:25;10.10;91.30
42097;DHT22;27754;45.414;11.084;2022-11-15T12:03:59;10.10;91.10
42097;DHT22;27754;45.414;11.084;2022-11-15T12:06:36;10.10;91.30
42097;DHT22;27754;45.414;11.084;2022-11-15T12:09:22;10.30;91.40
42097;DHT22;27754;45.414;11.084;2022-11-15T12:17:37;10.40;91.10
42097;DHT22;27754;45.414;11.084;2022-11-15T12:23:03;10.60;91.30
42097;DHT22;27754;45.414;11.084;2022-11-15T12:25:50;10.60;91.20
42097;DHT22;27754;45.414;11.084;2022-11-15T12:34:50;10.70;91.10
42097;DHT22;27754;45.414;11.084;2022-11-15T12:36:52;10.70;91.30
42097;DHT22;27754;45.414;11.084;2022-11-15T12:39:19;10.70;91.50
42097;DHT22;27754;45.414;11.084;2022-11-15T12:47:02;10.80;91.80
42097;DHT22;27754;45.414;11.084;2022-11-15T12:59:57;10.80;91.90
42097;DHT22;27754;45.414;11.084;2022-11-15T13:17:44;10.90;91.80
42097;DHT22;27754;45.414;11.084;2022-11-15T13:20:17;10.90;92.00
42097;DHT22;27754;45.414;11.084;2022-11-15T13:33:21;10.90;92.70
42097;DHT22;27754;45.414;11.084;2022-11-15T13:36:00;10.80;92.50
42097;DHT22;27754;45.414;11.084;2022-11-15T13:38:29;10.90;92.50
42097;DHT22;27754;45.414;11.084;2022-11-15T13:40:59;10.90;92.60
42097;DHT22;27754;45.414;11.084;2022-11-15T13:43:35;10.90;92.70
42097;DHT22;27754;45.414;11.084;2022-11-15T13:46:22;10.90;92.70
42097;DHT22;27754;45.414;11.084;2022-11-15T13:51:28;10.90;93.00
42097;DHT22;27754;45.414;11.084;2022-11-15T13:54:07;10.90;92.90
42097;DHT22;27754;45.414;11.084;2022-11-15T13:56:37;10.90;93.00
42097;DHT22;27754;45.414;11.084;2022-11-15T13:59:33;10.90;93.10
42097;DHT22;27754;45.414;11.084;2022-11-15T14:02:12;10.90;93.10
42097;DHT22;27754;45.414;11.084;2022-11-15T14:04:55;10.90;92.90
42097;DHT22;27754;45.414;11.084;2022-11-15T14:07:25;10.90;93.10
42097;DHT22;27754;45.414;11.084;2022-11-15T14:09:53;10.90;93.30
42097;DHT22;27754;45.414;11.084;2022-11-15T14:12:29;11.00;93.40
42097;DHT22;27754;45.414;11.084;2022-11-15T14:15:02;11.00;93.30
42097;DHT22;27754;45.414;11.084;2022-11-15T14:17:44;11.00;93.30
42097;DHT22;27754;45.414;11.084;2022-11-15T14:23:23;10.90;93.20
42097;DHT22;27754;45.414;11.084;2022-11-15T14:25:55;11.00;93.40
42097;DHT22;27754;45.414;11.084;2022-11-15T14:30:55;10.90;92.90
42097;DHT22;27754;45.414;11.084;2022-11-15T14:33:34;10.90;93.00
42097;DHT22;27754;45.414;11.084;2022-11-15T14:36:15;10.90;93.10
42097;DHT22;27754;45.414;11.084;2022-11-15T14:38:42;10.90;93.20
42097;DHT22;27754;45.414;11.084;2022-11-15T14:41:17;11.00;93.10
42097;DHT22;27754;45.414;11.084;2022-11-15T14:43:45;11.00;93.00
42097;DHT22;27754;45.414;11.084;2022-11-15T14:46:12;10.90;92.80
42097;DHT22;27754;45.414;11.084;2022-11-15T14:48:39;10.90;92.70
42097;DHT22;27754;45.414;11.084;2022-11-15T14:51:14;10.90;92.70
42097;DHT22;27754;45.414;11.084;2022-11-15T14:53:42;10.90;92.90
42097;DHT22;27754;45.414;11.084;2022-11-15T14:56:10;10.90;92.90
42097;DHT22;27754;45.414;11.084;2022-11-15T14:58:37;10.90;92.80
42097;DHT22;27754;45.414;11.084;2022-11-15T15:01:18;10.90;92.90
42097;DHT22;27754;45.414;11.084;2022-11-15T15:03:46;10.80;92.90
42097;DHT22;27754;45.414;11.084;2022-11-15T15:06:13;10.80;92.80
42097;DHT22;27754;45.414;11.084;2022-11-15T15:08:44;10.80;92.90
42097;DHT22;27754;45.414;11.084;2022-11-15T15:11:18;10.80;92.90
42097;DHT22;27754;45.414;11.084;2022-11-15T15:13:46;10.80;92.90
42097;DHT22;27754;45.414;11.084;2022-11-15T15:16:13;10.80;92.90
42097;DHT22;27754;45.414;11.084;2022-11-15T15:18:40;10.70;93.10
42097;DHT22;27754;45.414;11.084;2022-11-15T15:21:24;10.70;93.10
42097;DHT22;27754;45.414;11.084;2022-11-15T15:23:52;10.60;93.20
42097;DHT22;27754;45.414;11.084;2022-11-15T15:26:21;10.70;93.40
42097;DHT22;27754;45.414;11.084;2022-11-15T15:28:49;10.70;93.30
42097;DHT22;27754;45.414;11.084;2022-11-15T15:31:18;10.60;93.60
42097;DHT22;27754;45.414;11.084;2022-11-15T15:33:45;10.60;93.60
42097;DHT22;27754;45.414;11.084;2022-11-15T15:36:13;10.60;93.80
42097;DHT22;27754;45.414;11.084;2022-11-15T15:38:40;10.60;93.80
42097;DHT22;27754;45.414;11.084;2022-11-15T15:41:15;10.60;93.80
42097;DHT22;27754;45.414;11.084;2022-11-15T15:43:42;10.60;93.90
42097;DHT22;27754;45.414;11.084;2022-11-15T15:46:15;10.50;93.80
42097;DHT22;27754;45.414;11.084;2022-11-15T15:48:43;10.50;94.00
42097;DHT22;27754;45.414;11.084;2022-11-15T15:51:09;10.50;93.90
42097;DHT22;27754;45.414;11.084;2022-11-15T15:53:45;10.40;94.00
42097;DHT22;27754;45.414;11.084;2022-11-15T15:56:12;10.50;94.10
42097;DHT22;27754;45.414;11.084;2022-11-15T15:58:39;10.50;94.10
42097;DHT22;27754;45.414;11.084;2022-11-15T16:01:06;10.50;94.10
42097;DHT22;27754;45.414;11.084;2022-11-15T16:03:33;10.50;94.30
42097;DHT22;27754;45.414;11.084;2022-11-15T16:06:00;10.40;94.10
42097;DHT22;27754;45.414;11.084;2022-11-15T16:08:27;10.40;94.20
42097;DHT22;27754;45.414;11.084;2022-11-15T16:11:16;10.40;94.30
42097;DHT22;27754;45.414;11.084;2022-11-15T16:13:43;10.40;94.30
42097;DHT22;27754;45.414;11.084;2022-11-15T16:16:12;10.40;94.40
42097;DHT22;27754;45.414;11.084;2022-11-15T16:18:40;10.40;94.50
42097;DHT22;27754;45.414;11.084;2022-11-15T16:21:08;10.40;94.40
42097;DHT22;27754;45.414;11.084;2022-11-15T16:23:35;10.40;94.50
42097;DHT22;27754;45.414;11.084;2022-11-15T16:26:02;10.40;94.40
42097;DHT22;27754;45.414;11.084;2022-11-15T16:28:33;10.40;94.40
42097;DHT22;27754;45.414;11.084;2022-11-15T16:31:11;10.40;94.50
42097;DHT22;27754;45.414;11.084;2022-11-15T16:33:39;10.40;94.60
42097;DHT22;27754;45.414;11.084;2022-11-15T16:36:22;10.40;94.70
42097;DHT22;27754;45.414;11.084;2022-11-15T16:38:55;10.40;94.70
42097;DHT22;27754;45.414;11.084;2022-11-15T16:41:22;10.40;94.80
42097;DHT22;27754;45.414;11.084;2022-11-15T16:43:49;10.40;94.80
42097;DHT22;27754;45.414;11.084;2022-11-15T16:46:22;10.40;94.80
42097;DHT22;27754;45.414;11.084;2022-11-15T16:48:50;10.40;94.70
42097;DHT22;27754;45.414;11.084;2022-11-15T16:51:17;10.40;94.80
42097;DHT22;27754;45.414;11.084;2022-11-15T16:53:44;10.40;94.80
42097;DHT22;27754;45.414;11.084;2022-11-15T16:56:28;10.40;94.80
42097;DHT22;27754;45.414;11.084;2022-11-15T16:58:57;10.40;94.70
42097;DHT22;27754;45.414;11.084;2022-11-15T17:01:30;10.40;94.70
42097;DHT22;27754;45.414;11.084;2022-11-15T17:03:57;10.30;94.70
42097;DHT22;27754;45.414;11.084;2022-11-15T17:06:25;10.30;94.70
42097;DHT22;27754;45.414;11.084;2022-11-15T17:08:52;10.40;94.60
42097;DHT22;27754;45.414;11.084;2022-11-15T17:11:21;10.40;94.60
42097;DHT22;27754;45.414;11.084;2022-11-15T17:13:48;10.30;94.60
42097;DHT22;27754;45.414;11.084;2022-11-15T17:16:16;10.40;94.60
42097;DHT22;27754;45.414;11.084;2022-11-15T17:18:43;10.40;94.60
42097;DHT22;27754;45.414;11.084;2022-11-15T17:21:15;10.40;94.50
42097;DHT22;27754;45.414;11.084;2022-11-15T17:23:43;10.40;94.50
42097;DHT22;27754;45.414;11.084;2022-11-15T17:26:11;10.40;94.60
42097;DHT22;27754;45.414;11.084;2022-11-15T17:28:56;10.40;94.50
42097;DHT22;27754;45.414;11.084;2022-11-15T17:31:23;10.40;94.50
42097;DHT22;27754;45.414;11.084;2022-11-15T17:33:51;10.40;94.40
42097;DHT22;27754;45.414;11.084;2022-11-15T17:36:18;10.40;94.40
42097;DHT22;27754;45.414;11.084;2022-11-15T17:38:45;10.40;94.50
42097;DHT22;27754;45.414;11.084;2022-11-15T17:41:16;10.40;94.40
42097;DHT22;27754;45.414;11.084;2022-11-15T17:43:43;10.40;94.50
42097;DHT22;27754;45.414;11.084;2022-11-15T17:46:12;10.40;94.50
42097;DHT22;27754;45.414;11.084;2022-11-15T17:48:39;10.40;94.40
42097;DHT22;27754;45.414;11.084;2022-11-15T17:51:09;10.40;94.40
42097;DHT22;27754;45.414;11.084;2022-11-15T17:53:38;10.40;94.40
42097;DHT22;27754;45.414;11.084;2022-11-15T17:56:08;10.40;94.50
42097;DHT22;27754;45.414;11.084;2022-11-15T17:58:35;10.40;94.40
42097;DHT22;27754;45.414;11.084;2022-11-15T18:03:36;10.40;94.50
42097;DHT22;27754;45.414;11.084;2022-11-15T18:06:04;10.40;94.50
42097;DHT22;27754;45.414;11.084;2022-11-15T18:08:32;10.40;94.50
42097;DHT22;27754;45.414;11.084;2022-11-15T18:11:06;10.40;94.50
42097;DHT22;27754;45.414;11.084;2022-11-15T18:13:35;10.40;94.60
42097;DHT22;27754;45.414;11.084;2022-11-15T18:16:04;10.40;94.60
42097;DHT22;27754;45.414;11.084;2022-11-15T18:18:32;10.40;94.70
42097;DHT22;27754;45.414;11.084;2022-11-15T18:21:04;10.40;94.70
42097;DHT22;27754;45.414;11.084;2022-11-15T18:23:33;10.40;94.70
42097;DHT22;27754;45.414;11.084;2022-11-15T18:26:02;10.40;94.80
42097;DHT22;27754;45.414;11.084;2022-11-15T18:28:32;10.40;94.70
42097;DHT22;27754;45.414;11.084;2022-11-15T18:31:02;10.40;94.70
42097;DHT22;27754;45.414;11.084;2022-11-15T18:33:33;10.40;94.80
42097;DHT22;27754;45.414;11.084;2022-11-15T18:36:03;10.40;94.70
42097;DHT22;27754;45.414;11.084;2022-11-15T18:38:31;10.40;94.80
42097;DHT22;27754;45.414;11.084;2022-11-15T18:41:05;10.40;94.70
42097;DHT22;27754;45.414;11.084;2022-11-15T18:43:32;10.40;94.80
42097;DHT22;27754;45.414;11.084;2022-11-15T18:46:08;10.40;94.70
42097;DHT22;27754;45.414;11.084;2022-11-15T18:48:37;10.30;94.80
42097;DHT22;27754;45.414;11.084;2022-11-15T18:51:16;10.40;94.90
42097;DHT22;27754;45.414;11.084;2022-11-15T18:53:44;10.30;94.90
42097;DHT22;27754;45.414;11.084;2022-11-15T18:56:16;10.30;94.90
42097;DHT22;27754;45.414;11.084;2022-11-15T18:58:48;10.30;94.90
42097;DHT22;27754;45.414;11.084;2022-11-15T19:01:17;10.40;94.90
42097;DHT22;27754;45.414;11.084;2022-11-15T19:03:46;10.30;94.90
42097;DHT22;27754;45.414;11.084;2022-11-15T19:06:22;10.30;94.90
42097;DHT22;27754;45.414;11.084;2022-11-15T19:08:51;10.30;94.80